Date,TemperatureHighF,TemperatureAvgF,TemperatureLowF,DewpointHighF,DewpointAvgF,DewpointLowF,HumidityHigh,HumidityAvg,HumidityLow,PressureMaxIn,PressureMinIn,WindSpeedMaxMPH,WindSpeedAvgMPH,GustSpeedMaxMPH,PrecipitationSumIn
2012-12-1,63.0,55.1,37.0,55.0,50.7,37.0,100,86,72,30.07,29.89,18,11,24,0.00
2012-12-2,68.0,57.9,48.0,55.0,36.9,-99.9,100,73,52,30.04,29.91,13,6,0,0.00
2012-12-3,72.0,62.0,52.0,59.0,56.5,50.0,100,84,60,30.00,29.80,30,14,43,0.00
2012-12-4,57.0,47.3,36.0,50.0,38.3,32.0,93,72,41,30.31,30.00,12,6,16,0.00
2012-12-5,52.0,39.8,30.0,41.0,34.0,27.0,93,80,57,30.38,30.14,8,4,0,0.00
2012-12-6,52.0,41.3,34.0,43.0,36.0,-99.9,100,85,70,30.14,29.91,10,5,0,0.00
2012-12-7,45.0,43.3,41.0,45.0,-2.8,-99.9,100,66,93,29.93,29.84,9,5,0,0.00
2012-12-8,41.0,37.9,37.0,37.0,-9.1,-99.9,100,63,86,30.03,29.89,15,8,17,0.00
2012-12-9,43.0,38.3,25.0,43.0,-5.6,-99.9,100,64,79,29.97,29.82,21,9,28,0.00
2012-12-10,28.0,22.6,18.0,21.0,17.9,16.0,100,82,68,30.07,29.94,18,11,28,0.00
2012-12-11,39.0,26.0,16.0,25.0,19.7,14.0,100,79,51,30.20,30.04,12,6,0,0.00
2012-12-12,46.0,29.9,21.0,27.0,21.5,19.0,92,73,39,30.27,30.20,16,7,18,0.00
2012-12-13,54.0,37.5,28.0,30.0,25.1,21.0,80,62,37,30.26,30.12,21,10,25,0.00
2012-12-14,50.0,40.6,32.0,37.0,29.9,25.0,86,66,43,30.19,29.91,15,10,21,0.00
2012-12-15,57.0,47.8,39.0,46.0,43.8,36.0,100,86,62,29.91,29.58,28,14,36,0.00
2012-12-16,46.0,39.7,34.0,45.0,19.7,-99.9,100,80,81,29.78,29.69,10,6,0,0.00
2012-12-17,37.0,33.9,28.0,36.0,6.3,-99.9,100,77,86,29.78,29.71,12,4,0,0.00
2012-12-18,54.0,38.7,30.0,39.0,20.5,-99.9,100,73,54,29.92,29.66,23,11,29,0.00
2012-12-19,45.0,33.7,27.0,37.0,15.7,-99.9,100,84,80,29.99,29.47,18,8,20,0.00
2012-12-20,52.0,32.9,21.0,52.0,26.2,-99.9,100,89,79,30.05,29.20,35,23,52,0.00
2012-12-21,30.0,22.0,16.0,19.0,15.3,12.0,92,74,58,30.32,30.05,27,12,31,0.00
2012-12-22,43.0,27.1,12.0,34.0,21.4,10.0,100,80,56,30.30,29.94,12,4,0,0.00
2012-12-23,37.0,29.9,23.0,30.0,25.8,23.0,100,85,55,29.99,29.89,9,4,0,0.00
2012-12-24,27.0,20.6,16.0,27.0,19.3,14.0,100,94,85,30.15,29.87,15,9,24,0.00
2012-12-25,25.0,21.7,19.0,21.0,18.5,16.0,100,87,79,30.30,30.14,21,13,28,0.00
2012-12-26,27.0,22.0,18.0,21.0,18.0,16.0,92,85,73,30.20,30.07,20,13,27,0.00
2012-12-27,32.0,25.6,21.0,25.0,22.1,19.0,100,87,69,30.20,30.02,14,4,18,0.00
2012-12-28,32.0,29.6,27.0,28.0,26.9,25.0,100,89,80,30.03,29.91,13,5,16,0.00
2012-12-29,28.0,22.8,16.0,27.0,19.6,14.0,100,86,73,30.32,29.96,17,11,24,0.00
2012-12-30,41.0,29.1,16.0,27.0,21.2,14.0,92,73,51,30.39,30.16,16,10,25,0.00
2012-12-31,36.0,30.8,21.0,32.0,16.1,-99.9,100,79,55,30.18,30.08,14,6,17,0.00